sensor_id;sensor_type;location;lat;lon;timestamp;P1;durP1;ratioP1;P2;durP2;ratioP2
9436;SDS011;4757;59.334;18.034;2023-08-20T00:01:30;3.85;;;2.70;;
9436;SDS011;4757;59.334;18.034;2023-08-20T00:03:57;3.40;;;3.10;;
9436;SDS011;4757;59.334;18.034;2023-08-20T00:06:25;3.90;;;2.78;;
9436;SDS011;4757;59.334;18.034;2023-08-20T00:08:52;4.82;;;2.60;;
9436;SDS011;4757;59.334;18.034;2023-08-20T00:11:19;2.50;;;2.30;;
9436;SDS011;4757;59.334;18.034;2023-08-20T00:13:47;3.00;;;2.60;;
9436;SDS011;4757;59.334;18.034;2023-08-20T00:16:14;3.60;;;2.90;;
9436;SDS011;4757;59.334;18.034;2023-08-20T00:18:41;3.13;;;2.53;;
9436;SDS011;4757;59.334;18.034;2023-08-20T00:21:09;3.50;;;2.50;;
9436;SDS011;4757;59.334;18.034;2023-08-20T00:23:36;3.58;;;2.60;;
9436;SDS011;4757;59.334;18.034;2023-08-20T00:26:04;3.65;;;2.97;;
9436;SDS011;4757;59.334;18.034;2023-08-20T00:28:31;4.43;;;2.53;;
9436;SDS011;4757;59.334;18.034;2023-08-20T00:31:04;2.53;;;2.33;;
9436;SDS011;4757;59.334;18.034;2023-08-20T00:33:32;3.38;;;2.42;;
9436;SDS011;4757;59.334;18.034;2023-08-20T00:35:59;2.83;;;2.58;;
9436;SDS011;4757;59.334;18.034;2023-08-20T00:38:26;2.40;;;2.20;;
9436;SDS011;4757;59.334;18.034;2023-08-20T00:40:53;3.15;;;2.33;;
9436;SDS011;4757;59.334;18.034;2023-08-20T00:43:21;2.40;;;2.20;;
9436;SDS011;4757;59.334;18.034;2023-08-20T00:45:48;3.60;;;2.42;;
9436;SDS011;4757;59.334;18.034;2023-08-20T00:48:15;2.50;;;2.30;;
9436;SDS011;4757;59.334;18.034;2023-08-20T00:50:43;3.05;;;2.22;;
9436;SDS011;4757;59.334;18.034;2023-08-20T00:53:11;2.70;;;2.22;;
9436;SDS011;4757;59.334;18.034;2023-08-20T00:55:41;2.85;;;2.65;;
9436;SDS011;4757;59.334;18.034;2023-08-20T00:58:10;2.67;;;2.47;;
9436;SDS011;4757;59.334;18.034;2023-08-20T01:00:37;4.13;;;2.42;;
9436;SDS011;4757;59.334;18.034;2023-08-20T01:03:05;5.40;;;2.70;;
9436;SDS011;4757;59.334;18.034;2023-08-20T01:05:33;3.90;;;2.70;;
9436;SDS011;4757;59.334;18.034;2023-08-20T01:13:24;2.67;;;2.47;;
9436;SDS011;4757;59.334;18.034;2023-08-20T01:15:52;2.65;;;2.45;;
9436;SDS011;4757;59.334;18.034;2023-08-20T01:18:19;2.90;;;2.60;;
9436;SDS011;4757;59.334;18.034;2023-08-20T01:20:47;2.90;;;2.60;;
9436;SDS011;4757;59.334;18.034;2023-08-20T01:26:31;3.10;;;2.67;;
9436;SDS011;4757;59.334;18.034;2023-08-20T01:29:09;3.10;;;2.80;;
9436;SDS011;4757;59.334;18.034;2023-08-20T01:31:38;3.30;;;2.50;;
9436;SDS011;4757;59.334;18.034;2023-08-20T01:34:06;3.33;;;2.40;;
9436;SDS011;4757;59.334;18.034;2023-08-20T01:36:33;2.65;;;2.45;;
9436;SDS011;4757;59.334;18.034;2023-08-20T01:39:01;2.97;;;2.67;;
9436;SDS011;4757;59.334;18.034;2023-08-20T01:41:28;3.10;;;2.08;;
9436;SDS011;4757;59.334;18.034;2023-08-20T01:43:55;2.87;;;2.40;;
9436;SDS011;4757;59.334;18.034;2023-08-20T01:46:22;2.60;;;2.40;;
9436;SDS011;4757;59.334;18.034;2023-08-20T01:48:49;2.88;;;2.53;;
9436;SDS011;4757;59.334;18.034;2023-08-20T01:51:16;3.20;;;2.50;;
9436;SDS011;4757;59.334;18.034;2023-08-20T01:53:43;2.40;;;2.20;;
9436;SDS011;4757;59.334;18.034;2023-08-20T01:56:13;5.55;;;2.67;;
9436;SDS011;4757;59.334;18.034;2023-08-20T01:58:41;2.95;;;2.40;;
9436;SDS011;4757;59.334;18.034;2023-08-20T02:01:08;3.60;;;2.58;;
9436;SDS011;4757;59.334;18.034;2023-08-20T02:03:35;4.38;;;2.40;;
9436;SDS011;4757;59.334;18.034;2023-08-20T02:06:06;2.67;;;2.47;;
9436;SDS011;4757;59.334;18.034;2023-08-20T02:08:36;3.85;;;2.70;;
9436;SDS011;4757;59.334;18.034;2023-08-20T02:11:03;5.45;;;2.30;;
9436;SDS011;4757;59.334;18.034;2023-08-20T02:13:31;3.13;;;2.65;;
9436;SDS011;4757;59.334;18.034;2023-08-20T02:16:00;2.55;;;2.33;;
9436;SDS011;4757;59.334;18.034;2023-08-20T02:18:29;3.60;;;2.72;;
9436;SDS011;4757;59.334;18.034;2023-08-20T02:20:57;3.15;;;2.83;;
9436;SDS011;4757;59.334;18.034;2023-08-20T02:23:25;3.80;;;2.50;;
9436;SDS011;4757;59.334;18.034;2023-08-20T02:25:52;5.07;;;2.85;;
9436;SDS011;4757;59.334;18.034;2023-08-20T02:28:19;2.83;;;2.55;;
9436;SDS011;4757;59.334;18.034;2023-08-20T02:30:46;3.40;;;2.70;;
9436;SDS011;4757;59.334;18.034;2023-08-20T02:33:24;2.72;;;2.53;;
9436;SDS011;4757;59.334;18.034;2023-08-20T02:35:51;2.85;;;2.65;;
9436;SDS011;4757;59.334;18.034;2023-08-20T02:38:46;2.70;;;2.50;;
9436;SDS011;4757;59.334;18.034;2023-08-20T02:41:14;3.63;;;3.20;;
9436;SDS011;4757;59.334;18.034;2023-08-20T02:43:41;5.75;;;2.60;;
9436;SDS011;4757;59.334;18.034;2023-08-20T02:46:08;2.77;;;2.57;;
9436;SDS011;4757;59.334;18.034;2023-08-20T02:48:35;4.03;;;2.75;;
9436;SDS011;4757;59.334;18.034;2023-08-20T02:51:02;3.70;;;2.42;;
9436;SDS011;4757;59.334;18.034;2023-08-20T02:53:29;3.85;;;2.45;;
9436;SDS011;4757;59.334;18.034;2023-08-20T02:55:57;3.90;;;2.53;;
9436;SDS011;4757;59.334;18.034;2023-08-20T02:58:24;3.35;;;2.47;;
9436;SDS011;4757;59.334;18.034;2023-08-20T03:00:52;3.17;;;2.40;;
9436;SDS011;4757;59.334;18.034;2023-08-20T03:03:19;3.13;;;2.17;;
9436;SDS011;4757;59.334;18.034;2023-08-20T03:05:46;2.50;;;2.30;;
9436;SDS011;4757;59.334;18.034;2023-08-20T03:08:13;2.47;;;2.28;;
9436;SDS011;4757;59.334;18.034;2023-08-20T03:10:41;2.78;;;2.30;;
9436;SDS011;4757;59.334;18.034;2023-08-20T03:13:08;2.30;;;2.10;;
9436;SDS011;4757;59.334;18.034;2023-08-20T03:15:35;2.23;;;2.03;;
9436;SDS011;4757;59.334;18.034;2023-08-20T03:18:02;2.97;;;2.30;;
9436;SDS011;4757;59.334;18.034;2023-08-20T03:20:30;3.63;;;2.33;;
9436;SDS011;4757;59.334;18.034;2023-08-20T03:22:57;2.40;;;2.20;;
9436;SDS011;4757;59.334;18.034;2023-08-20T03:25:25;4.13;;;2.10;;
9436;SDS011;4757;59.334;18.034;2023-08-20T03:27:52;2.93;;;2.33;;
9436;SDS011;4757;59.334;18.034;2023-08-20T03:30:20;2.20;;;2.00;;
9436;SDS011;4757;59.334;18.034;2023-08-20T03:32:47;2.13;;;1.90;;
9436;SDS011;4757;59.334;18.034;2023-08-20T03:35:14;1.90;;;1.80;;
9436;SDS011;4757;59.334;18.034;2023-08-20T03:37:42;2.08;;;1.90;;
9436;SDS011;4757;59.334;18.034;2023-08-20T03:40:09;2.07;;;1.90;;
9436;SDS011;4757;59.334;18.034;2023-08-20T03:42:37;2.05;;;1.85;;
9436;SDS011;4757;59.334;18.034;2023-08-20T03:45:04;1.90;;;1.70;;
9436;SDS011;4757;59.334;18.034;2023-08-20T03:47:31;2.25;;;1.92;;
9436;SDS011;4757;59.334;18.034;2023-08-20T03:49:59;2.20;;;1.90;;
9436;SDS011;4757;59.334;18.034;2023-08-20T03:52:27;1.98;;;1.88;;
9436;SDS011;4757;59.334;18.034;2023-08-20T03:54:54;2.30;;;2.10;;
9436;SDS011;4757;59.334;18.034;2023-08-20T03:57:21;2.30;;;1.88;;
9436;SDS011;4757;59.334;18.034;2023-08-20T03:59:48;2.10;;;2.00;;
9436;SDS011;4757;59.334;18.034;2023-08-20T04:02:15;2.95;;;2.00;;
9436;SDS011;4757;59.334;18.034;2023-08-20T04:04:43;2.17;;;2.00;;
9436;SDS011;4757;59.334;18.034;2023-08-20T04:07:10;2.53;;;1.80;;
9436;SDS011;4757;59.334;18.034;2023-08-20T04:09:37;2.13;;;1.80;;
9436;SDS011;4757;59.334;18.034;2023-08-20T04:12:05;2.20;;;2.00;;
9436;SDS011;4757;59.334;18.034;2023-08-20T04:14:33;1.90;;;1.80;;
9436;SDS011;4757;59.334;18.034;2023-08-20T04:17:00;2.53;;;1.83;;
9436;SDS011;4757;59.334;18.034;2023-08-20T04:19:29;3.33;;;2.10;;
9436;SDS011;4757;59.334;18.034;2023-08-20T04:22:02;2.03;;;1.90;;
9436;SDS011;4757;59.334;18.034;2023-08-20T04:24:29;1.90;;;1.80;;
9436;SDS011;4757;59.334;18.034;2023-08-20T04:27:00;2.30;;;2.10;;
9436;SDS011;4757;59.334;18.034;2023-08-20T04:29:27;1.90;;;1.80;;
9436;SDS011;4757;59.334;18.034;2023-08-20T04:31:54;2.08;;;1.85;;
9436;SDS011;4757;59.334;18.034;2023-08-20T04:34:21;2.85;;;2.00;;
9436;SDS011;4757;59.334;18.034;2023-08-20T04:36:49;2.50;;;2.07;;
9436;SDS011;4757;59.334;18.034;2023-08-20T04:39:16;2.35;;;1.77;;
9436;SDS011;4757;59.334;18.034;2023-08-20T04:41:44;1.70;;;1.60;;
9436;SDS011;4757;59.334;18.034;2023-08-20T04:44:11;1.60;;;1.50;;
9436;SDS011;4757;59.334;18.034;2023-08-20T04:46:38;2.00;;;1.80;;
9436;SDS011;4757;59.334;18.034;2023-08-20T04:49:05;2.35;;;1.60;;
9436;SDS011;4757;59.334;18.034;2023-08-20T04:51:32;2.67;;;1.70;;
9436;SDS011;4757;59.334;18.034;2023-08-20T04:54:02;1.77;;;1.67;;
9436;SDS011;4757;59.334;18.034;2023-08-20T04:56:30;1.88;;;1.60;;
9436;SDS011;4757;59.334;18.034;2023-08-20T04:58:57;3.33;;;1.80;;
9436;SDS011;4757;59.334;18.034;2023-08-20T05:01:24;1.98;;;1.60;;
9436;SDS011;4757;59.334;18.034;2023-08-20T05:03:51;2.00;;;1.80;;
9436;SDS011;4757;59.334;18.034;2023-08-20T05:06:18;1.75;;;1.65;;
9436;SDS011;4757;59.334;18.034;2023-08-20T05:08:45;3.30;;;1.73;;
9436;SDS011;4757;59.334;18.034;2023-08-20T05:11:13;2.00;;;1.85;;
9436;SDS011;4757;59.334;18.034;2023-08-20T05:13:40;2.20;;;2.00;;
9436;SDS011;4757;59.334;18.034;2023-08-20T05:16:07;1.70;;;1.60;;
9436;SDS011;4757;59.334;18.034;2023-08-20T05:18:34;3.03;;;1.80;;
9436;SDS011;4757;59.334;18.034;2023-08-20T05:21:01;1.70;;;1.60;;
9436;SDS011;4757;59.334;18.034;2023-08-20T05:23:28;1.90;;;1.70;;
9436;SDS011;4757;59.334;18.034;2023-08-20T05:25:58;1.70;;;1.60;;
9436;SDS011;4757;59.334;18.034;2023-08-20T05:28:25;1.67;;;1.58;;
9436;SDS011;4757;59.334;18.034;2023-08-20T05:30:55;1.58;;;1.42;;
9436;SDS011;4757;59.334;18.034;2023-08-20T05:33:24;1.63;;;1.52;;
9436;SDS011;4757;59.334;18.034;2023-08-20T05:35:51;2.00;;;1.70;;
9436;SDS011;4757;59.334;18.034;2023-08-20T05:38:18;1.70;;;1.52;;
9436;SDS011;4757;59.334;18.034;2023-08-20T05:40:47;1.58;;;1.42;;
9436;SDS011;4757;59.334;18.034;2023-08-20T05:43:14;1.60;;;1.50;;
9436;SDS011;4757;59.334;18.034;2023-08-20T05:45:41;1.70;;;1.60;;
9436;SDS011;4757;59.334;18.034;2023-08-20T05:48:08;1.70;;;1.60;;
9436;SDS011;4757;59.334;18.034;2023-08-20T05:50:35;1.48;;;1.38;;
9436;SDS011;4757;59.334;18.034;2023-08-20T05:53:03;1.90;;;1.80;;
9436;SDS011;4757;59.334;18.034;2023-08-20T05:55:33;2.47;;;1.80;;
9436;SDS011;4757;59.334;18.034;2023-08-20T05:58:00;2.65;;;1.70;;
9436;SDS011;4757;59.334;18.034;2023-08-20T06:00:27;2.10;;;1.67;;
9436;SDS011;4757;59.334;18.034;2023-08-20T06:02:54;2.58;;;1.70;;
9436;SDS011;4757;59.334;18.034;2023-08-20T06:05:22;1.87;;;1.77;;
9436;SDS011;4757;59.334;18.034;2023-08-20T06:07:49;1.65;;;1.55;;
9436;SDS011;4757;59.334;18.034;2023-08-20T06:10:16;1.77;;;1.60;;
9436;SDS011;4757;59.334;18.034;2023-08-20T06:12:43;1.70;;;1.60;;
9436;SDS011;4757;59.334;18.034;2023-08-20T06:15:10;1.77;;;1.67;;
9436;SDS011;4757;59.334;18.034;2023-08-20T06:17:38;1.80;;;1.70;;
9436;SDS011;4757;59.334;18.034;2023-08-20T06:20:06;1.80;;;1.70;;
9436;SDS011;4757;59.334;18.034;2023-08-20T06:22:35;1.70;;;1.60;;
9436;SDS011;4757;59.334;18.034;2023-08-20T06:25:02;1.70;;;1.60;;
9436;SDS011;4757;59.334;18.034;2023-08-20T06:27:30;2.70;;;1.83;;
9436;SDS011;4757;59.334;18.034;2023-08-20T06:29:57;3.88;;;1.83;;
9436;SDS011;4757;59.334;18.034;2023-08-20T06:32:24;1.80;;;1.60;;
9436;SDS011;4757;59.334;18.034;2023-08-20T06:34:51;1.50;;;1.40;;
9436;SDS011;4757;59.334;18.034;2023-08-20T06:37:18;2.13;;;1.60;;
9436;SDS011;4757;59.334;18.034;2023-08-20T06:39:45;2.60;;;1.50;;
9436;SDS011;4757;59.334;18.034;2023-08-20T06:42:13;2.42;;;1.50;;
9436;SDS011;4757;59.334;18.034;2023-08-20T06:44:40;2.05;;;1.60;;
9436;SDS011;4757;59.334;18.034;2023-08-20T06:47:07;1.60;;;1.48;;
9436;SDS011;4757;59.334;18.034;2023-08-20T06:49:34;1.95;;;1.40;;
9436;SDS011;4757;59.334;18.034;2023-08-20T06:52:01;1.77;;;1.67;;
9436;SDS011;4757;59.334;18.034;2023-08-20T06:54:33;1.80;;;1.60;;
9436;SDS011;4757;59.334;18.034;2023-08-20T06:57:00;1.95;;;1.70;;
9436;SDS011;4757;59.334;18.034;2023-08-20T06:59:27;1.60;;;1.50;;
9436;SDS011;4757;59.334;18.034;2023-08-20T07:01:55;2.30;;;1.60;;
9436;SDS011;4757;59.334;18.034;2023-08-20T07:04:22;2.60;;;1.60;;
9436;SDS011;4757;59.334;18.034;2023-08-20T07:06:49;2.75;;;1.50;;
9436;SDS011;4757;59.334;18.034;2023-08-20T07:09:17;2.30;;;1.40;;
9436;SDS011;4757;59.334;18.034;2023-08-20T07:11:44;2.80;;;2.00;;
9436;SDS011;4757;59.334;18.034;2023-08-20T07:14:14;2.70;;;1.70;;
9436;SDS011;4757;59.334;18.034;2023-08-20T07:16:41;2.83;;;1.80;;
9436;SDS011;4757;59.334;18.034;2023-08-20T07:19:09;3.17;;;1.67;;
9436;SDS011;4757;59.334;18.034;2023-08-20T07:21:36;1.52;;;1.42;;
9436;SDS011;4757;59.334;18.034;2023-08-20T07:24:03;2.70;;;1.60;;
9436;SDS011;4757;59.334;18.034;2023-08-20T07:26:31;2.10;;;1.70;;
9436;SDS011;4757;59.334;18.034;2023-08-20T07:29:01;2.38;;;1.83;;
9436;SDS011;4757;59.334;18.034;2023-08-20T07:31:29;2.95;;;1.90;;
9436;SDS011;4757;59.334;18.034;2023-08-20T07:33:58;2.70;;;1.88;;
9436;SDS011;4757;59.334;18.034;2023-08-20T07:36:31;1.73;;;1.63;;
9436;SDS011;4757;59.334;18.034;2023-08-20T07:38:59;2.00;;;1.80;;
9436;SDS011;4757;59.334;18.034;2023-08-20T07:41:28;6.38;;;2.03;;
9436;SDS011;4757;59.334;18.034;2023-08-20T07:43:55;3.97;;;2.00;;
9436;SDS011;4757;59.334;18.034;2023-08-20T07:46:24;2.10;;;1.80;;
9436;SDS011;4757;59.334;18.034;2023-08-20T07:48:51;3.72;;;2.30;;
9436;SDS011;4757;59.334;18.034;2023-08-20T07:51:18;2.95;;;1.90;;
9436;SDS011;4757;59.334;18.034;2023-08-20T07:53:46;2.20;;;1.90;;
9436;SDS011;4757;59.334;18.034;2023-08-20T07:56:13;2.00;;;1.90;;
9436;SDS011;4757;59.334;18.034;2023-08-20T07:58:40;2.70;;;1.90;;
9436;SDS011;4757;59.334;18.034;2023-08-20T08:01:07;2.80;;;2.30;;
9436;SDS011;4757;59.334;18.034;2023-08-20T08:03:34;2.38;;;2.17;;
9436;SDS011;4757;59.334;18.034;2023-08-20T08:06:02;2.70;;;2.08;;
9436;SDS011;4757;59.334;18.034;2023-08-20T08:08:29;2.55;;;2.10;;
9436;SDS011;4757;59.334;18.034;2023-08-20T08:11:05;3.15;;;2.50;;
9436;SDS011;4757;59.334;18.034;2023-08-20T08:13:32;4.45;;;2.47;;
9436;SDS011;4757;59.334;18.034;2023-08-20T08:16:03;3.00;;;2.13;;
9436;SDS011;4757;59.334;18.034;2023-08-20T08:18:30;4.03;;;2.45;;
9436;SDS011;4757;59.334;18.034;2023-08-20T08:20:57;2.55;;;2.20;;
9436;SDS011;4757;59.334;18.034;2023-08-20T08:23:25;3.53;;;2.17;;
9436;SDS011;4757;59.334;18.034;2023-08-20T08:25:52;3.38;;;2.08;;
9436;SDS011;4757;59.334;18.034;2023-08-20T08:28:19;2.63;;;2.30;;
9436;SDS011;4757;59.334;18.034;2023-08-20T08:30:46;5.23;;;2.60;;
9436;SDS011;4757;59.334;18.034;2023-08-20T08:33:14;6.25;;;2.40;;
9436;SDS011;4757;59.334;18.034;2023-08-20T08:35:41;2.30;;;2.10;;
9436;SDS011;4757;59.334;18.034;2023-08-20T08:38:08;2.40;;;2.20;;
9436;SDS011;4757;59.334;18.034;2023-08-20T08:40:35;4.97;;;2.20;;
9436;SDS011;4757;59.334;18.034;2023-08-20T08:43:03;3.05;;;2.70;;
9436;SDS011;4757;59.334;18.034;2023-08-20T08:45:34;3.50;;;2.40;;
9436;SDS011;4757;59.334;18.034;2023-08-20T08:48:03;3.17;;;2.72;;
9436;SDS011;4757;59.334;18.034;2023-08-20T08:50:33;3.23;;;2.30;;
9436;SDS011;4757;59.334;18.034;2023-08-20T08:53:00;3.10;;;2.30;;
9436;SDS011;4757;59.334;18.034;2023-08-20T08:55:28;3.13;;;2.25;;
9436;SDS011;4757;59.334;18.034;2023-08-20T08:57:56;3.10;;;2.63;;
9436;SDS011;4757;59.334;18.034;2023-08-20T09:00:23;2.77;;;2.47;;
9436;SDS011;4757;59.334;18.034;2023-08-20T09:02:50;4.43;;;2.85;;
9436;SDS011;4757;59.334;18.034;2023-08-20T09:05:17;2.40;;;2.20;;
9436;SDS011;4757;59.334;18.034;2023-08-20T09:07:44;4.13;;;2.67;;
9436;SDS011;4757;59.334;18.034;2023-08-20T09:10:12;3.85;;;2.38;;
9436;SDS011;4757;59.334;18.034;2023-08-20T09:12:43;3.38;;;2.60;;
9436;SDS011;4757;59.334;18.034;2023-08-20T09:15:11;2.80;;;2.42;;
9436;SDS011;4757;59.334;18.034;2023-08-20T09:17:40;2.83;;;2.60;;
9436;SDS011;4757;59.334;18.034;2023-08-20T09:20:08;2.55;;;2.35;;
9436;SDS011;4757;59.334;18.034;2023-08-20T09:22:36;3.45;;;2.45;;
9436;SDS011;4757;59.334;18.034;2023-08-20T09:25:04;3.22;;;2.53;;
9436;SDS011;4757;59.334;18.034;2023-08-20T09:27:38;2.67;;;2.47;;
9436;SDS011;4757;59.334;18.034;2023-08-20T09:30:07;3.95;;;2.50;;
9436;SDS011;4757;59.334;18.034;2023-08-20T09:32:34;3.22;;;2.50;;
9436;SDS011;4757;59.334;18.034;2023-08-20T09:35:02;3.40;;;2.40;;
9436;SDS011;4757;59.334;18.034;2023-08-20T09:37:29;3.30;;;2.50;;
9436;SDS011;4757;59.334;18.034;2023-08-20T09:40:01;4.07;;;2.70;;
9436;SDS011;4757;59.334;18.034;2023-08-20T09:42:31;3.45;;;2.30;;
9436;SDS011;4757;59.334;18.034;2023-08-20T09:45:02;2.72;;;2.53;;
9436;SDS011;4757;59.334;18.034;2023-08-20T09:47:31;3.33;;;2.58;;
9436;SDS011;4757;59.334;18.034;2023-08-20T09:50:04;3.05;;;2.53;;
9436;SDS011;4757;59.334;18.034;2023-08-20T09:52:44;3.55;;;2.78;;
9436;SDS011;4757;59.334;18.034;2023-08-20T09:55:21;5.85;;;4.88;;
9436;SDS011;4757;59.334;18.034;2023-08-20T09:57:49;3.17;;;2.67;;
9436;SDS011;4757;59.334;18.034;2023-08-20T10:00:17;2.72;;;2.42;;
9436;SDS011;4757;59.334;18.034;2023-08-20T10:02:44;3.00;;;2.70;;
9436;SDS011;4757;59.334;18.034;2023-08-20T10:05:12;3.53;;;2.60;;
9436;SDS011;4757;59.334;18.034;2023-08-20T10:07:40;3.38;;;2.45;;
9436;SDS011;4757;59.334;18.034;2023-08-20T10:10:09;4.47;;;2.63;;
9436;SDS011;4757;59.334;18.034;2023-08-20T10:12:42;5.38;;;4.47;;
9436;SDS011;4757;59.334;18.034;2023-08-20T10:15:12;3.28;;;2.70;;
9436;SDS011;4757;59.334;18.034;2023-08-20T10:17:43;3.65;;;2.40;;
9436;SDS011;4757;59.334;18.034;2023-08-20T10:20:13;2.90;;;2.60;;
9436;SDS011;4757;59.334;18.034;2023-08-20T10:22:44;3.03;;;2.70;;
9436;SDS011;4757;59.334;18.034;2023-08-20T10:25:12;2.85;;;2.58;;
9436;SDS011;4757;59.334;18.034;2023-08-20T10:27:49;4.00;;;2.58;;
9436;SDS011;4757;59.334;18.034;2023-08-20T10:30:17;3.17;;;2.35;;
9436;SDS011;4757;59.334;18.034;2023-08-20T10:32:52;3.70;;;2.90;;
9436;SDS011;4757;59.334;18.034;2023-08-20T10:35:28;2.70;;;2.50;;
9436;SDS011;4757;59.334;18.034;2023-08-20T10:38:13;4.50;;;2.70;;
9436;SDS011;4757;59.334;18.034;2023-08-20T10:40:52;4.43;;;3.00;;
9436;SDS011;4757;59.334;18.034;2023-08-20T10:43:30;3.47;;;3.13;;
9436;SDS011;4757;59.334;18.034;2023-08-20T10:48:54;3.17;;;2.55;;
9436;SDS011;4757;59.334;18.034;2023-08-20T10:51:31;4.57;;;2.97;;
9436;SDS011;4757;59.334;18.034;2023-08-20T10:56:47;3.15;;;2.85;;
9436;SDS011;4757;59.334;18.034;2023-08-20T10:59:16;5.07;;;2.70;;
9436;SDS011;4757;59.334;18.034;2023-08-20T11:01:54;3.50;;;2.67;;
9436;SDS011;4757;59.334;18.034;2023-08-20T11:04:24;4.90;;;4.47;;
9436;SDS011;4757;59.334;18.034;2023-08-20T11:06:55;2.90;;;2.70;;
9436;SDS011;4757;59.334;18.034;2023-08-20T11:09:23;2.85;;;2.38;;
9436;SDS011;4757;59.334;18.034;2023-08-20T11:11:52;2.90;;;2.40;;
9436;SDS011;4757;59.334;18.034;2023-08-20T11:14:21;3.55;;;2.80;;
9436;SDS011;4757;59.334;18.034;2023-08-20T11:16:48;3.70;;;2.78;;
9436;SDS011;4757;59.334;18.034;2023-08-20T11:19:24;2.97;;;2.60;;
9436;SDS011;4757;59.334;18.034;2023-08-20T11:22:05;2.60;;;2.40;;
9436;SDS011;4757;59.334;18.034;2023-08-20T11:24:32;3.70;;;2.70;;
9436;SDS011;4757;59.334;18.034;2023-08-20T11:27:05;2.70;;;2.50;;
9436;SDS011;4757;59.334;18.034;2023-08-20T11:29:36;4.00;;;2.78;;
9436;SDS011;4757;59.334;18.034;2023-08-20T11:32:03;2.70;;;2.50;;
9436;SDS011;4757;59.334;18.034;2023-08-20T11:34:31;2.53;;;2.33;;
9436;SDS011;4757;59.334;18.034;2023-08-20T11:36:58;3.30;;;3.00;;
9436;SDS011;4757;59.334;18.034;2023-08-20T11:39:26;3.47;;;2.83;;
9436;SDS011;4757;59.334;18.034;2023-08-20T11:41:55;3.00;;;2.70;;
9436;SDS011;4757;59.334;18.034;2023-08-20T11:44:22;3.85;;;2.50;;
9436;SDS011;4757;59.334;18.034;2023-08-20T11:46:50;3.38;;;2.60;;
9436;SDS011;4757;59.334;18.034;2023-08-20T11:49:20;2.78;;;2.58;;
9436;SDS011;4757;59.334;18.034;2023-08-20T11:51:56;2.67;;;2.47;;
9436;SDS011;4757;59.334;18.034;2023-08-20T11:54:24;3.58;;;3.28;;
9436;SDS011;4757;59.334;18.034;2023-08-20T11:56:52;3.47;;;3.17;;
9436;SDS011;4757;59.334;18.034;2023-08-20T11:59:32;4.70;;;2.80;;
9436;SDS011;4757;59.334;18.034;2023-08-20T12:02:02;2.70;;;2.50;;
9436;SDS011;4757;59.334;18.034;2023-08-20T12:04:30;2.90;;;2.70;;
9436;SDS011;4757;59.334;18.034;2023-08-20T12:07:04;3.25;;;2.88;;
9436;SDS011;4757;59.334;18.034;2023-08-20T12:09:34;3.90;;;2.85;;
9436;SDS011;4757;59.334;18.034;2023-08-20T12:12:02;4.28;;;2.67;;
9436;SDS011;4757;59.334;18.034;2023-08-20T12:14:32;2.88;;;2.67;;
9436;SDS011;4757;59.334;18.034;2023-08-20T12:17:00;3.20;;;2.90;;
9436;SDS011;4757;59.334;18.034;2023-08-20T12:19:27;2.83;;;2.40;;
9436;SDS011;4757;59.334;18.034;2023-08-20T12:21:54;3.25;;;2.92;;
9436;SDS011;4757;59.334;18.034;2023-08-20T12:24:21;3.13;;;2.78;;
9436;SDS011;4757;59.334;18.034;2023-08-20T12:26:49;3.03;;;2.72;;
9436;SDS011;4757;59.334;18.034;2023-08-20T12:29:16;2.97;;;2.73;;
9436;SDS011;4757;59.334;18.034;2023-08-20T12:31:44;3.33;;;2.70;;
9436;SDS011;4757;59.334;18.034;2023-08-20T12:34:11;3.05;;;2.85;;
9436;SDS011;4757;59.334;18.034;2023-08-20T12:36:38;4.45;;;3.00;;
9436;SDS011;4757;59.334;18.034;2023-08-20T12:39:05;3.07;;;2.80;;
9436;SDS011;4757;59.334;18.034;2023-08-20T12:41:33;3.30;;;3.08;;
9436;SDS011;4757;59.334;18.034;2023-08-20T12:44:02;3.58;;;3.10;;
9436;SDS011;4757;59.334;18.034;2023-08-20T12:46:30;3.03;;;2.83;;
9436;SDS011;4757;59.334;18.034;2023-08-20T12:49:01;8.50;;;7.70;;
9436;SDS011;4757;59.334;18.034;2023-08-20T12:51:29;4.55;;;3.13;;
9436;SDS011;4757;59.334;18.034;2023-08-20T12:54:01;2.88;;;2.67;;
9436;SDS011;4757;59.334;18.034;2023-08-20T12:56:29;3.40;;;3.10;;
9436;SDS011;4757;59.334;18.034;2023-08-20T12:58:56;3.90;;;3.50;;
9436;SDS011;4757;59.334;18.034;2023-08-20T13:01:23;4.43;;;3.60;;
9436;SDS011;4757;59.334;18.034;2023-08-20T13:03:50;4.07;;;3.63;;
9436;SDS011;4757;59.334;18.034;2023-08-20T13:06:18;3.50;;;3.20;;
9436;SDS011;4757;59.334;18.034;2023-08-20T13:08:46;4.13;;;3.83;;
9436;SDS011;4757;59.334;18.034;2023-08-20T13:11:16;4.70;;;4.03;;
9436;SDS011;4757;59.334;18.034;2023-08-20T13:13:47;4.07;;;3.67;;
9436;SDS011;4757;59.334;18.034;2023-08-20T13:16:15;4.35;;;3.95;;
9436;SDS011;4757;59.334;18.034;2023-08-20T13:18:45;4.15;;;3.75;;
9436;SDS011;4757;59.334;18.034;2023-08-20T13:21:12;4.75;;;4.38;;
9436;SDS011;4757;59.334;18.034;2023-08-20T13:23:40;5.10;;;4.07;;
9436;SDS011;4757;59.334;18.034;2023-08-20T13:26:07;4.07;;;3.78;;
9436;SDS011;4757;59.334;18.034;2023-08-20T13:28:36;5.07;;;4.20;;
9436;SDS011;4757;59.334;18.034;2023-08-20T13:31:03;4.50;;;4.10;;
9436;SDS011;4757;59.334;18.034;2023-08-20T13:33:30;5.15;;;4.65;;
9436;SDS011;4757;59.334;18.034;2023-08-20T13:35:58;6.03;;;4.90;;
9436;SDS011;4757;59.334;18.034;2023-08-20T13:38:25;5.05;;;4.55;;
9436;SDS011;4757;59.334;18.034;2023-08-20T13:40:53;4.57;;;4.15;;
9436;SDS011;4757;59.334;18.034;2023-08-20T13:43:22;5.07;;;4.50;;
9436;SDS011;4757;59.334;18.034;2023-08-20T13:45:52;4.72;;;4.32;;
9436;SDS011;4757;59.334;18.034;2023-08-20T13:48:19;4.75;;;4.35;;
9436;SDS011;4757;59.334;18.034;2023-08-20T13:50:46;4.85;;;4.20;;
9436;SDS011;4757;59.334;18.034;2023-08-20T13:53:14;4.85;;;4.45;;
9436;SDS011;4757;59.334;18.034;2023-08-20T13:55:41;4.90;;;4.40;;
9436;SDS011;4757;59.334;18.034;2023-08-20T13:58:09;5.00;;;4.60;;
9436;SDS011;4757;59.334;18.034;2023-08-20T14:00:36;7.10;;;6.50;;
9436;SDS011;4757;59.334;18.034;2023-08-20T14:03:03;5.22;;;4.78;;
9436;SDS011;4757;59.334;18.034;2023-08-20T14:05:32;5.60;;;4.65;;
9436;SDS011;4757;59.334;18.034;2023-08-20T14:07:59;5.60;;;5.20;;
9436;SDS011;4757;59.334;18.034;2023-08-20T14:10:26;5.50;;;5.10;;
9436;SDS011;4757;59.334;18.034;2023-08-20T14:12:56;5.88;;;5.38;;
9436;SDS011;4757;59.334;18.034;2023-08-20T14:15:23;6.55;;;6.05;;
9436;SDS011;4757;59.334;18.034;2023-08-20T14:17:50;8.38;;;6.53;;
9436;SDS011;4757;59.334;18.034;2023-08-20T14:20:17;8.13;;;7.13;;
9436;SDS011;4757;59.334;18.034;2023-08-20T14:22:45;6.82;;;6.20;;
9436;SDS011;4757;59.334;18.034;2023-08-20T14:25:12;6.63;;;6.10;;
9436;SDS011;4757;59.334;18.034;2023-08-20T14:27:39;6.43;;;5.82;;
9436;SDS011;4757;59.334;18.034;2023-08-20T14:30:07;6.45;;;5.80;;
9436;SDS011;4757;59.334;18.034;2023-08-20T14:32:34;5.53;;;5.13;;
9436;SDS011;4757;59.334;18.034;2023-08-20T14:35:06;6.53;;;5.93;;
9436;SDS011;4757;59.334;18.034;2023-08-20T14:37:33;5.35;;;4.85;;
9436;SDS011;4757;59.334;18.034;2023-08-20T14:40:00;6.13;;;5.53;;
9436;SDS011;4757;59.334;18.034;2023-08-20T14:42:28;5.47;;;4.97;;
9436;SDS011;4757;59.334;18.034;2023-08-20T14:44:55;5.00;;;4.60;;
9436;SDS011;4757;59.334;18.034;2023-08-20T14:47:23;4.80;;;4.40;;
9436;SDS011;4757;59.334;18.034;2023-08-20T14:49:50;5.47;;;4.95;;
9436;SDS011;4757;59.334;18.034;2023-08-20T14:52:18;6.05;;;4.70;;
9436;SDS011;4757;59.334;18.034;2023-08-20T14:54:46;6.77;;;5.20;;
9436;SDS011;4757;59.334;18.034;2023-08-20T14:57:13;5.82;;;4.82;;
9436;SDS011;4757;59.334;18.034;2023-08-20T14:59:43;5.20;;;4.70;;
9436;SDS011;4757;59.334;18.034;2023-08-20T15:02:11;5.60;;;5.05;;
9436;SDS011;4757;59.334;18.034;2023-08-20T15:04:38;5.45;;;5.03;;
9436;SDS011;4757;59.334;18.034;2023-08-20T15:07:05;5.37;;;4.93;;
9436;SDS011;4757;59.334;18.034;2023-08-20T15:09:32;6.28;;;5.47;;
9436;SDS011;4757;59.334;18.034;2023-08-20T15:12:03;5.95;;;5.45;;
9436;SDS011;4757;59.334;18.034;2023-08-20T15:14:30;6.85;;;6.18;;
9436;SDS011;4757;59.334;18.034;2023-08-20T15:16:57;6.38;;;5.78;;
9436;SDS011;4757;59.334;18.034;2023-08-20T15:19:24;6.43;;;5.60;;
9436;SDS011;4757;59.334;18.034;2023-08-20T15:21:51;5.82;;;5.22;;